createdAt,value
2018-10-12T00:00:02.245Z,99.99
2018-10-12T00:01:10.288Z,99.99
2018-10-12T00:02:18.356Z,99.99
2018-10-12T00:03:26.387Z,99.99
2018-10-12T00:04:34.485Z,99.99
2018-10-12T00:05:42.541Z,99.99
2018-10-12T00:06:50.611Z,99.99
2018-10-12T00:07:58.672Z,99.99
2018-10-12T00:09:06.716Z,99.99
2018-10-12T00:10:14.795Z,99.99
2018-10-12T00:11:22.857Z,99.99
2018-10-12T00:12:30.941Z,99.99
2018-10-12T00:13:38.993Z,99.99
2018-10-12T00:14:47.046Z,99.99
2018-10-12T00:15:55.123Z,99.99
2018-10-12T00:17:03.184Z,99.99
2018-10-12T00:18:11.245Z,99.99
2018-10-12T00:19:19.314Z,99.99
2018-10-12T00:20:27.361Z,99.99
2018-10-12T00:21:35.427Z,99.99
2018-10-12T00:22:43.490Z,99.99
2018-10-12T00:23:51.563Z,99.99
2018-10-12T00:24:59.612Z,99.99
2018-10-12T00:26:07.682Z,99.99
2018-10-12T00:27:15.735Z,99.99
2018-10-12T00:28:23.814Z,99.99
2018-10-12T00:29:31.873Z,99.99
2018-10-12T00:30:39.934Z,99.99
2018-10-12T00:31:48.005Z,99.99
2018-10-12T00:32:56.033Z,99.99
2018-10-12T00:34:04.175Z,99.99
2018-10-12T00:35:12.185Z,99.99
2018-10-12T00:36:20.522Z,99.99
2018-10-12T00:37:28.415Z,99.99
2018-10-12T00:38:36.357Z,99.99
2018-10-12T00:39:44.429Z,99.99
2018-10-12T00:40:52.485Z,99.99
2018-10-12T00:42:00.568Z,99.99
2018-10-12T00:43:08.632Z,99.99
2018-10-12T00:44:16.671Z,99.99
2018-10-12T00:45:24.764Z,99.99
2018-10-12T00:46:32.824Z,99.99
2018-10-12T00:47:40.878Z,99.99
2018-10-12T00:48:48.939Z,99.99
2018-10-12T00:49:57.014Z,99.99
2018-10-12T00:51:05.071Z,99.99
2018-10-12T00:52:13.132Z,99.99
2018-10-12T00:53:21.194Z,99.99
2018-10-12T00:54:29.247Z,99.99
2018-10-12T00:55:37.311Z,99.99
2018-10-12T00:56:45.370Z,99.99
2018-10-12T00:57:53.431Z,99.99
2018-10-12T00:59:01.504Z,99.99
2018-10-12T01:00:09.563Z,99.99
2018-10-12T01:01:17.647Z,99.99
2018-10-12T01:02:25.688Z,99.99
2018-10-12T01:03:33.790Z,99.99
2018-10-12T01:04:41.811Z,99.99
2018-10-12T01:05:49.871Z,99.99
2018-10-12T01:06:57.936Z,99.99
2018-10-12T01:08:05.983Z,99.99
2018-10-12T01:09:14.068Z,99.99
2018-10-12T01:10:22.120Z,99.99
2018-10-12T01:11:30.196Z,99.99
2018-10-12T01:12:38.253Z,99.99
2018-10-12T01:13:46.288Z,99.99
2018-10-12T01:14:54.408Z,99.99
2018-10-12T01:16:02.438Z,99.99
2018-10-12T01:17:10.505Z,99.99
2018-10-12T01:18:18.578Z,99.99
2018-10-12T01:19:26.592Z,99.99
2018-10-12T01:20:34.693Z,99.99
2018-10-12T01:21:42.741Z,99.99
2018-10-12T01:22:50.817Z,99.99
2018-10-12T01:23:58.881Z,99.99
2018-10-12T01:25:06.937Z,99.99
2018-10-12T01:26:14.999Z,99.99
2018-10-12T01:27:23.064Z,99.99
2018-10-12T01:28:31.132Z,99.99
2018-10-12T01:29:39.182Z,99.99
2018-10-12T01:30:47.267Z,99.99
2018-10-12T01:31:55.303Z,99.99
2018-10-12T01:33:03.385Z,99.99
2018-10-12T01:34:11.438Z,99.99
2018-10-12T01:35:19.499Z,99.99
2018-10-12T01:36:27.551Z,99.99
2018-10-12T01:37:35.613Z,99.99
2018-10-12T01:38:43.693Z,99.99
2018-10-12T01:39:51.748Z,99.99
2018-10-12T01:40:59.809Z,99.99
2018-10-12T01:42:07.862Z,99.99
2018-10-12T01:43:15.917Z,99.99
2018-10-12T01:44:24.041Z,99.99
2018-10-12T01:45:32.056Z,99.99
2018-10-12T01:46:40.126Z,99.99
2018-10-12T01:47:48.183Z,99.99
2018-10-12T01:48:56.223Z,99.99
2018-10-12T01:50:04.305Z,99.99
2018-10-12T01:51:12.373Z,99.99
2018-10-12T01:52:20.477Z,99.99
2018-10-12T01:53:28.499Z,99.99
2018-10-12T01:54:36.521Z,99.99
2018-10-12T01:55:44.616Z,99.99
2018-10-12T01:56:52.673Z,99.99
2018-10-12T01:58:00.743Z,99.99
2018-10-12T01:59:08.795Z,99.99
2018-10-12T02:00:16.860Z,99.99
2018-10-12T02:01:24.924Z,99.99
2018-10-12T02:02:32.994Z,99.99
2018-10-12T02:03:41.031Z,99.99
2018-10-12T02:04:49.118Z,99.99
2018-10-12T02:05:57.171Z,99.99
2018-10-12T02:07:05.230Z,99.99
2018-10-12T02:08:13.308Z,99.99
2018-10-12T02:09:21.360Z,99.99
2018-10-12T02:10:29.704Z,99.99
2018-10-12T02:11:37.488Z,99.99
2018-10-12T02:12:45.550Z,99.99
2018-10-12T02:13:53.607Z,99.99
2018-10-12T02:15:01.674Z,99.99
2018-10-12T02:16:09.737Z,99.99
2018-10-12T02:17:17.792Z,99.99
2018-10-12T02:18:25.845Z,99.99
2018-10-12T02:19:33.932Z,99.99
2018-10-12T02:20:41.988Z,99.99
2018-10-12T02:21:50.045Z,99.99
2018-10-12T02:22:58.116Z,99.99
2018-10-12T02:24:06.175Z,99.99
2018-10-12T02:25:14.233Z,99.99
2018-10-12T02:26:22.292Z,99.99
2018-10-12T02:27:30.359Z,99.99
2018-10-12T02:28:38.409Z,99.99
2018-10-12T02:29:46.447Z,99.99
2018-10-12T02:30:54.553Z,99.99
2018-10-12T02:32:02.606Z,99.99
2018-10-12T02:33:10.665Z,99.99
2018-10-12T02:34:18.739Z,99.99
2018-10-12T02:35:26.783Z,99.99
2018-10-12T02:36:34.867Z,99.99
2018-10-12T02:37:42.922Z,99.99
2018-10-12T02:38:50.983Z,99.99
2018-10-12T02:39:59.048Z,99.99
2018-10-12T02:41:07.111Z,99.99
2018-10-12T02:42:15.178Z,99.99
2018-10-12T02:43:23.234Z,99.99
2018-10-12T02:44:31.296Z,99.99
2018-10-12T02:45:39.370Z,99.99
2018-10-12T02:46:47.433Z,99.99
2018-10-12T02:47:55.504Z,99.99
2018-10-12T02:49:03.583Z,99.99
2018-10-12T02:50:11.614Z,99.99
2018-10-12T02:51:19.691Z,99.99
2018-10-12T02:52:27.734Z,99.99
2018-10-12T02:53:35.800Z,99.99
2018-10-12T02:54:43.868Z,99.99
2018-10-12T02:55:51.927Z,99.99
2018-10-12T02:56:59.988Z,99.99
2018-10-12T02:58:08.046Z,99.99
2018-10-12T02:59:16.090Z,99.99
2018-10-12T03:00:24.174Z,99.99
2018-10-12T03:01:32.236Z,99.99
2018-10-12T03:02:40.312Z,99.99
2018-10-12T03:03:48.364Z,99.99
2018-10-12T03:04:56.402Z,99.99
2018-10-12T03:06:04.478Z,99.99
2018-10-12T03:07:12.538Z,99.99
2018-10-12T03:08:20.604Z,99.99
2018-10-12T03:09:28.666Z,99.99
2018-10-12T03:10:36.711Z,99.99
2018-10-12T03:11:44.793Z,99.99
2018-10-12T03:12:52.859Z,99.99
2018-10-12T03:14:00.932Z,99.99
2018-10-12T03:15:08.983Z,99.99
2018-10-12T03:16:17.040Z,99.99
2018-10-12T03:17:25.115Z,99.99
2018-10-12T03:18:33.184Z,99.99
2018-10-12T03:19:41.231Z,99.99
2018-10-12T03:20:49.304Z,99.99
2018-10-12T03:21:57.363Z,99.99
2018-10-12T03:23:05.423Z,99.99
2018-10-12T03:24:13.487Z,99.99
2018-10-12T03:25:21.538Z,99.99
2018-10-12T03:26:29.601Z,99.99
2018-10-12T03:27:37.663Z,99.99
2018-10-12T03:28:45.723Z,99.99
2018-10-12T03:29:53.803Z,99.99
2018-10-12T03:31:01.865Z,99.99
2018-10-12T03:32:09.930Z,99.99
2018-10-12T03:33:18.022Z,99.99
2018-10-12T03:34:26.018Z,99.99
2018-10-12T03:35:34.104Z,99.99
2018-10-12T03:36:42.172Z,99.99
2018-10-12T03:37:50.224Z,99.99
2018-10-12T03:38:58.327Z,99.99
2018-10-12T03:40:06.326Z,99.99
2018-10-12T03:41:14.430Z,99.99
2018-10-12T03:42:22.476Z,99.99
2018-10-12T03:43:30.531Z,99.99
2018-10-12T03:44:38.600Z,99.99
2018-10-12T03:45:46.650Z,99.99
2018-10-12T03:46:54.715Z,99.99
2018-10-12T03:48:02.785Z,99.99
2018-10-12T03:49:10.851Z,99.99
2018-10-12T03:50:18.908Z,99.99
2018-10-12T03:51:26.961Z,99.99
2018-10-12T03:52:35.041Z,99.99
2018-10-12T03:53:43.101Z,99.99
2018-10-12T03:54:51.173Z,99.99
2018-10-12T03:55:59.221Z,99.99
2018-10-12T03:57:07.288Z,99.99
2018-10-12T03:58:15.360Z,99.99
2018-10-12T03:59:23.416Z,99.99
2018-10-12T04:00:31.524Z,99.99
2018-10-12T04:01:39.529Z,99.99
2018-10-12T04:02:47.708Z,99.99
2018-10-12T04:03:55.698Z,99.99
2018-10-12T04:05:03.720Z,99.99
2018-10-12T04:06:11.801Z,99.99
2018-10-12T04:07:19.850Z,99.99
2018-10-12T04:08:27.915Z,99.99
2018-10-12T04:09:35.972Z,99.99
2018-10-12T04:10:44.024Z,99.99
2018-10-12T04:11:52.099Z,99.99
2018-10-12T04:13:00.174Z,99.99
2018-10-12T04:14:08.217Z,99.99
2018-10-12T04:15:16.262Z,99.99
2018-10-12T04:16:24.350Z,99.99
2018-10-12T04:17:32.416Z,99.99
2018-10-12T04:18:40.494Z,99.99
2018-10-12T04:19:48.546Z,99.99
2018-10-12T04:20:57.851Z,99.99
2018-10-12T04:22:04.928Z,99.99
2018-10-12T04:23:12.725Z,99.99
2018-10-12T04:24:20.787Z,99.99
2018-10-12T04:25:28.859Z,99.99
2018-10-12T04:26:36.907Z,99.99
2018-10-12T04:27:44.980Z,99.99
2018-10-12T04:28:53.039Z,99.99
2018-10-12T04:30:02.497Z,99.99
2018-10-12T04:31:09.162Z,99.99
2018-10-12T04:32:17.216Z,99.99
2018-10-12T04:33:25.288Z,99.99
2018-10-12T04:34:33.345Z,99.99
2018-10-12T04:35:41.398Z,99.99
2018-10-12T04:36:49.466Z,99.99
2018-10-12T04:37:57.528Z,99.99
2018-10-12T04:39:05.596Z,99.99
2018-10-12T04:40:13.672Z,99.99
2018-10-12T04:41:21.918Z,99.99
2018-10-12T04:42:30.055Z,99.99
2018-10-12T04:43:37.836Z,99.99
2018-10-12T04:44:45.895Z,99.99
2018-10-12T04:45:53.963Z,99.99
2018-10-12T04:47:02.036Z,99.99
2018-10-12T04:48:10.098Z,99.99
2018-10-12T04:49:18.171Z,99.99
2018-10-12T04:50:26.194Z,99.99
2018-10-12T04:51:34.283Z,99.99
2018-10-12T04:52:42.346Z,99.99
2018-10-12T04:53:50.474Z,99.99
2018-10-12T04:54:58.482Z,99.99
2018-10-12T04:56:07.146Z,99.99
2018-10-12T04:57:14.597Z,99.99
2018-10-12T04:58:22.662Z,99.99
2018-10-12T04:59:30.723Z,99.99
2018-10-12T05:00:38.821Z,99.99
2018-10-12T05:01:47.530Z,99.99
2018-10-12T05:02:54.901Z,99.99
2018-10-12T05:04:02.959Z,99.99
2018-10-12T05:05:12.973Z,99.99
2018-10-12T05:06:19.098Z,99.99
2018-10-12T05:07:27.862Z,99.99
2018-10-12T05:08:35.204Z,99.99
2018-10-12T05:09:43.266Z,99.99
2018-10-12T05:10:51.934Z,99.99
2018-10-12T05:12:00.108Z,99.99
2018-10-12T05:13:07.456Z,99.99
2018-10-12T05:14:15.522Z,99.99
2018-10-12T05:15:23.598Z,99.99
2018-10-12T05:16:31.640Z,99.99
2018-10-12T05:17:39.715Z,99.99
2018-10-12T05:18:47.781Z,99.99
2018-10-12T05:19:55.825Z,99.99
2018-10-12T05:21:03.901Z,99.99
2018-10-12T05:22:12.077Z,99.99
2018-10-12T05:23:20.022Z,99.99
2018-10-12T05:24:28.096Z,99.99
2018-10-12T05:25:36.125Z,99.99
2018-10-12T05:26:44.212Z,99.99
2018-10-12T05:27:52.270Z,99.99
2018-10-12T05:29:00.345Z,99.99
2018-10-12T05:30:08.419Z,99.99
2018-10-12T05:31:16.436Z,99.99
2018-10-12T05:32:24.521Z,99.99
2018-10-12T05:33:32.599Z,99.99
2018-10-12T05:34:40.653Z,99.99
2018-10-12T05:35:48.716Z,99.99
2018-10-12T05:36:56.755Z,99.99
2018-10-12T05:38:04.851Z,99.99
2018-10-12T05:39:12.896Z,99.99
2018-10-12T05:40:20.967Z,99.99
2018-10-12T05:41:29.027Z,99.99
2018-10-12T05:42:37.131Z,99.99
2018-10-12T05:43:45.246Z,99.99
2018-10-12T05:44:53.226Z,99.99
2018-10-12T05:46:01.276Z,99.99
2018-10-12T05:47:09.339Z,99.99
2018-10-12T05:48:17.399Z,99.99
2018-10-12T05:49:25.468Z,99.99
2018-10-12T05:50:33.514Z,99.99
2018-10-12T05:51:41.595Z,99.99
2018-10-12T05:52:49.659Z,99.99
2018-10-12T05:53:57.719Z,99.99
2018-10-12T05:55:05.774Z,99.99
2018-10-12T05:56:13.843Z,99.99
2018-10-12T05:57:21.909Z,99.99
2018-10-12T05:58:29.969Z,99.99
2018-10-12T05:59:38.021Z,99.99
2018-10-12T06:00:46.067Z,99.99
2018-10-12T06:01:54.165Z,99.99
2018-10-12T06:03:02.209Z,99.99
2018-10-12T06:04:10.305Z,99.99
2018-10-12T06:05:18.339Z,99.99
2018-10-12T06:06:26.375Z,99.99
2018-10-12T06:07:34.475Z,99.99
2018-10-12T06:08:42.534Z,99.99
2018-10-12T06:09:50.678Z,99.99
2018-10-12T06:10:58.658Z,99.99
2018-10-12T06:12:06.698Z,99.99
2018-10-12T06:13:14.781Z,99.99
2018-10-12T06:14:22.843Z,99.99
2018-10-12T06:15:30.988Z,99.99
2018-10-12T06:16:38.967Z,99.99
2018-10-12T06:17:47.018Z,99.99
2018-10-12T06:18:55.086Z,99.99
2018-10-12T06:20:03.170Z,99.99
2018-10-12T06:21:11.218Z,99.99
2018-10-12T06:22:19.280Z,99.99
2018-10-12T06:23:27.333Z,99.99
2018-10-12T06:24:35.399Z,99.99
2018-10-12T06:25:43.470Z,99.99
2018-10-12T06:26:51.577Z,99.99
2018-10-12T06:27:59.597Z,99.99
2018-10-12T06:29:07.654Z,99.99
2018-10-12T06:30:15.705Z,99.99
2018-10-12T06:31:23.786Z,99.99
2018-10-12T06:32:31.899Z,99.99
2018-10-12T06:33:39.905Z,99.99
2018-10-12T06:34:47.964Z,99.99
2018-10-12T06:35:56.009Z,99.99
2018-10-12T06:37:04.184Z,99.99
2018-10-12T06:38:12.150Z,99.99
2018-10-12T06:39:20.231Z,99.99
2018-10-12T06:40:28.286Z,99.99
2018-10-12T06:41:36.530Z,99.99
2018-10-12T06:42:44.406Z,99.99
2018-10-12T06:43:52.501Z,99.99
2018-10-12T06:45:00.518Z,99.99
2018-10-12T06:46:08.598Z,99.99
2018-10-12T06:47:16.639Z,99.99
2018-10-12T06:48:24.719Z,99.99
2018-10-12T06:49:32.789Z,99.99
2018-10-12T06:50:40.856Z,99.99
2018-10-12T06:51:48.919Z,99.99
2018-10-12T06:52:56.972Z,99.99
2018-10-12T06:54:05.147Z,99.99
2018-10-12T06:55:13.114Z,99.99
2018-10-12T06:56:21.172Z,99.99
2018-10-12T06:57:29.240Z,99.99
2018-10-12T06:58:37.299Z,99.99
2018-10-12T06:59:45.368Z,99.99
2018-10-12T07:00:53.418Z,99.99
2018-10-12T07:02:01.488Z,99.99
2018-10-12T07:03:09.771Z,99.99
2018-10-12T07:04:17.609Z,99.99
2018-10-12T07:05:25.672Z,99.99
2018-10-12T07:06:33.729Z,99.99
2018-10-12T07:07:41.793Z,99.99
2018-10-12T07:08:49.875Z,99.99
2018-10-12T07:09:57.931Z,99.99
2018-10-12T07:11:05.974Z,99.99
2018-10-12T07:12:14.070Z,99.99
2018-10-12T07:13:22.123Z,99.99
2018-10-12T07:14:30.172Z,99.99
2018-10-12T07:15:38.261Z,99.99
2018-10-12T07:16:46.295Z,99.99
2018-10-12T07:17:54.589Z,99.99
2018-10-12T07:19:02.646Z,99.99
2018-10-12T07:20:10.712Z,99.99
2018-10-12T07:21:18.784Z,99.99
2018-10-12T07:22:26.838Z,99.99
2018-10-12T07:23:35.598Z,99.99
2018-10-12T07:24:43.327Z,99.99
2018-10-12T07:27:04.062Z,99.99
2018-10-12T07:29:29.227Z,99.99
2018-10-12T07:30:37.364Z,99.99
2018-10-12T07:31:44.675Z,99.62
2018-10-12T07:32:52.741Z,99.62
2018-10-12T07:34:00.807Z,98.71
2018-10-12T07:35:08.884Z,98.80
2018-10-12T07:36:16.924Z,98.80
2018-10-12T07:37:25.042Z,97.85
2018-10-12T07:38:33.065Z,98.18
2018-10-12T07:39:41.151Z,97.99
2018-10-12T07:40:49.207Z,96.56
2018-10-12T07:41:57.262Z,95.75
2018-10-12T07:43:05.344Z,95.65
2018-10-12T07:44:13.410Z,95.27
2018-10-12T07:45:21.465Z,94.98
2018-10-12T07:46:29.538Z,93.84
2018-10-12T07:47:37.597Z,94.70
2018-10-12T07:48:45.674Z,94.50
2018-10-12T07:49:53.752Z,93.74
2018-10-12T07:51:01.812Z,94.98
2018-10-12T07:52:09.867Z,94.50
2018-10-12T07:53:17.991Z,93.64
2018-10-12T07:54:25.984Z,93.07
2018-10-12T07:55:34.102Z,93.45
2018-10-12T07:56:42.134Z,92.02
2018-10-12T07:57:52.819Z,91.25
2018-10-12T07:59:00.990Z,91.35
2018-10-12T08:00:09.041Z,91.63
2018-10-12T08:01:17.030Z,92.11
2018-10-12T08:02:26.259Z,91.73
2018-10-12T08:03:34.360Z,93.35
2018-10-12T08:04:42.414Z,93.40
2018-10-12T08:05:50.496Z,94.55
2018-10-12T08:06:58.551Z,94.26
2018-10-12T08:08:06.591Z,94.84
2018-10-12T08:09:14.682Z,95.03
2018-10-12T08:10:22.746Z,94.55
2018-10-12T08:11:30.812Z,94.45
2018-10-12T08:12:38.877Z,93.50
2018-10-12T08:13:47.076Z,94.65
2018-10-12T08:14:55.018Z,94.55
2018-10-12T08:16:03.083Z,94.84
2018-10-12T08:17:14.379Z,95.61
2018-10-12T08:18:21.236Z,95.89
2018-10-12T08:19:29.295Z,95.79
2018-10-12T08:20:37.960Z,95.51
2018-10-12T08:21:46.026Z,95.31
2018-10-12T08:22:56.150Z,94.55
2018-10-12T08:24:02.177Z,94.50
2018-10-12T08:25:10.238Z,94.21
2018-10-12T08:26:18.308Z,94.45
2018-10-12T08:27:26.346Z,95.46
2018-10-12T08:28:35.090Z,95.75
2018-10-12T08:29:43.203Z,94.31
2018-10-12T08:30:51.340Z,94.21
2018-10-12T08:31:58.937Z,94.50
2018-10-12T08:33:06.911Z,96.22
2018-10-12T08:34:21.052Z,94.79
2018-10-12T08:35:25.052Z,94.79
2018-10-12T08:36:33.219Z,94.21
2018-10-12T08:37:41.178Z,94.60
2018-10-12T08:38:49.245Z,94.07
2018-10-12T08:39:57.315Z,93.21
2018-10-12T08:41:05.387Z,93.59
2018-10-12T08:42:13.462Z,93.21
2018-10-12T08:43:24.365Z,91.77
2018-10-12T08:44:32.204Z,90.05
2018-10-12T08:45:40.268Z,90.53
2018-10-12T08:46:48.334Z,89.09
2018-10-12T08:47:56.380Z,87.17
2018-10-12T08:49:04.469Z,86.21
2018-10-12T08:50:12.539Z,87.27
2018-10-12T08:51:20.611Z,86.60
2018-10-12T08:52:28.677Z,88.13
2018-10-12T08:53:36.716Z,87.02
2018-10-12T08:54:44.802Z,86.64
2018-10-12T08:55:52.875Z,85.21
2018-10-12T08:57:00.945Z,85.30
2018-10-12T08:58:09.009Z,85.68
2018-10-12T08:59:17.074Z,85.97
2018-10-12T09:00:25.145Z,86.64
2018-10-12T09:01:33.218Z,87.45
2018-10-12T09:02:41.268Z,85.15
2018-10-12T09:03:49.347Z,85.63
2018-10-12T09:04:57.414Z,86.30
2018-10-12T09:06:05.468Z,85.34
2018-10-12T09:07:13.540Z,84.28
2018-10-12T09:08:21.604Z,86.40
2018-10-12T09:09:29.678Z,83.23
2018-10-12T09:10:37.743Z,83.81
2018-10-12T09:11:45.806Z,83.23
2018-10-12T09:12:53.883Z,81.41
2018-10-12T09:14:01.948Z,82.37
2018-10-12T09:15:10.024Z,82.08
2018-10-12T09:16:18.199Z,81.93
2018-10-12T09:17:26.141Z,84.42
2018-10-12T09:18:34.222Z,83.18
2018-10-12T09:19:42.298Z,82.03
2018-10-12T09:20:50.428Z,82.03
2018-10-12T09:21:58.473Z,82.79
2018-10-12T09:23:06.480Z,82.74
2018-10-12T09:24:14.561Z,83.22
2018-10-12T09:25:22.636Z,81.68
2018-10-12T09:26:30.698Z,80.15
2018-10-12T09:27:38.770Z,79.76
2018-10-12T09:28:46.805Z,80.15
2018-10-12T09:29:54.899Z,80.34
2018-10-12T09:31:02.976Z,82.54
2018-10-12T09:32:11.038Z,82.84
2018-10-12T09:33:19.113Z,81.24
2018-10-12T09:34:27.163Z,81.72
2018-10-12T09:35:35.241Z,81.05
2018-10-12T09:36:44.149Z,79.99
2018-10-12T09:37:51.375Z,79.71
2018-10-12T09:38:59.455Z,81.15
2018-10-12T09:40:07.511Z,80.38
2018-10-12T09:41:15.591Z,78.84
2018-10-12T09:42:23.671Z,77.69
2018-10-12T09:43:31.736Z,78.94
2018-10-12T09:44:39.783Z,78.36
2018-10-12T09:45:47.872Z,76.29
2018-10-12T09:46:55.916Z,77.11
2018-10-12T09:48:03.997Z,74.27
2018-10-12T09:49:12.068Z,75.52
2018-10-12T09:50:20.145Z,75.71
2018-10-12T09:51:28.205Z,76.39
2018-10-12T09:52:36.256Z,75.42
2018-10-12T09:53:44.334Z,75.42
2018-10-12T09:54:52.437Z,74.46
2018-10-12T09:56:00.617Z,74.94
2018-10-12T09:57:08.540Z,75.32
2018-10-12T09:58:16.589Z,77.34
2018-10-12T09:59:24.675Z,74.55
2018-10-12T10:00:32.750Z,74.75
2018-10-12T10:01:40.815Z,74.75
2018-10-12T10:02:48.924Z,72.83
2018-10-12T10:03:56.955Z,77.38
2018-10-12T10:05:05.028Z,73.35
2018-10-12T10:06:13.093Z,73.63
2018-10-12T10:07:21.189Z,74.30
2018-10-12T10:08:29.273Z,75.17
2018-10-12T10:09:37.337Z,73.63
2018-10-12T10:10:45.371Z,75.37
2018-10-12T10:11:53.452Z,74.98
2018-10-12T10:13:01.497Z,71.91
2018-10-12T10:14:09.572Z,75.17
2018-10-12T10:15:17.640Z,72.48
2018-10-12T10:16:25.714Z,72.67
2018-10-12T10:17:33.770Z,73.54
2018-10-12T10:18:41.851Z,71.71
2018-10-12T10:19:49.934Z,73.44
2018-10-12T10:20:57.983Z,73.19
2018-10-12T10:22:06.040Z,71.55
2018-10-12T10:23:14.117Z,72.13
2018-10-12T10:24:22.193Z,71.65
2018-10-12T10:25:30.271Z,71.46
2018-10-12T10:26:38.342Z,73.13
2018-10-12T10:27:46.380Z,73.13
2018-10-12T10:28:54.478Z,72.36
2018-10-12T10:30:02.558Z,73.03
2018-10-12T10:31:10.631Z,69.28
2018-10-12T10:32:18.759Z,70.15
2018-10-12T10:33:26.742Z,71.40
2018-10-12T10:34:34.836Z,71.11
2018-10-12T10:35:42.894Z,71.78
2018-10-12T10:36:50.964Z,71.59
2018-10-12T10:37:59.040Z,73.90
2018-10-12T10:39:07.180Z,75.73
2018-10-12T10:40:15.170Z,73.80
2018-10-12T10:41:23.255Z,70.95
2018-10-12T10:42:31.312Z,70.56
2018-10-12T10:43:39.396Z,73.16
2018-10-12T10:44:47.446Z,71.43
2018-10-12T10:45:55.529Z,71.72
2018-10-12T10:47:03.594Z,71.72
2018-10-12T10:48:11.653Z,72.59
2018-10-12T10:49:19.731Z,71.34
2018-10-12T10:50:27.810Z,71.91
2018-10-12T10:51:35.854Z,69.22
2018-10-12T10:52:43.929Z,70.56
2018-10-12T10:53:52.016Z,71.81
2018-10-12T10:55:00.081Z,70.18
2018-10-12T10:56:08.150Z,70.76
2018-10-12T10:57:16.205Z,70.37
2018-10-12T10:58:24.283Z,67.10
2018-10-12T10:59:32.363Z,69.79
2018-10-12T11:00:40.432Z,69.41
2018-10-12T11:01:48.511Z,68.93
2018-10-12T11:02:56.542Z,68.84
2018-10-12T11:04:04.639Z,67.49
2018-10-12T11:05:12.711Z,68.64
2018-10-12T11:06:20.818Z,68.93
2018-10-12T11:07:28.845Z,68.35
2018-10-12T11:08:36.910Z,66.42
2018-10-12T11:09:44.973Z,67.29
2018-10-12T11:10:53.070Z,67.39
2018-10-12T11:13:15.343Z,70.41
2018-10-12T11:14:23.321Z,69.25
2018-10-12T11:15:31.387Z,68.10
2018-10-12T11:16:39.462Z,68.29
2018-10-12T11:17:47.523Z,68.10
2018-10-12T11:18:55.589Z,68.38
2018-10-12T11:20:03.671Z,66.85
2018-10-12T11:21:11.771Z,68.38
2018-10-12T11:22:19.806Z,70.60
2018-10-12T11:23:27.887Z,68.58
2018-10-12T11:24:35.999Z,68.77
2018-10-12T11:25:44.018Z,69.25
2018-10-12T11:26:52.177Z,70.21
2018-10-12T11:28:00.190Z,68.48
2018-10-12T11:29:08.250Z,72.14
2018-10-12T11:30:16.278Z,69.64
2018-10-12T11:31:24.357Z,68.61
2018-10-12T11:32:32.443Z,69.96
2018-10-12T11:33:40.508Z,70.83
2018-10-12T11:34:49.403Z,68.80
2018-10-12T11:35:56.619Z,66.20
2018-10-12T11:37:04.736Z,67.46
2018-10-12T11:38:12.827Z,69.38
2018-10-12T11:39:20.849Z,68.99
2018-10-12T11:40:28.918Z,70.44
2018-10-12T11:41:37.405Z,68.13
2018-10-12T11:42:45.268Z,67.36
2018-10-12T11:43:53.351Z,66.20
2018-10-12T11:53:54.481Z,66.33
2018-10-12T11:55:02.533Z,66.43
2018-10-12T12:03:46.919Z,68.84
2018-10-12T12:04:54.984Z,67.58
2018-10-12T12:06:03.057Z,64.11
2018-10-12T12:07:11.165Z,63.82
2018-10-12T12:08:19.172Z,64.21
2018-10-12T12:09:27.252Z,67.49
2018-10-12T12:10:35.327Z,64.79
2018-10-12T12:11:43.396Z,63.06
2018-10-12T12:12:51.493Z,61.03
2018-10-12T12:13:59.604Z,63.06
2018-10-12T12:15:07.583Z,64.79
2018-10-12T12:16:15.670Z,62.66
2018-10-12T12:17:23.732Z,63.73
2018-10-12T12:18:31.805Z,65.08
2018-10-12T12:19:39.916Z,64.59
2018-10-12T12:20:47.953Z,65.30
2018-10-12T12:21:55.997Z,66.14
2018-10-12T12:23:04.676Z,66.46
2018-10-12T12:24:12.775Z,63.95
2018-10-12T12:25:20.836Z,67.40
2018-10-12T12:26:28.910Z,67.40
2018-10-12T12:27:36.970Z,65.27
2018-10-12T12:28:48.099Z,66.43
2018-10-12T12:29:54.325Z,65.95
2018-10-12T12:31:02.383Z,64.69
2018-10-12T12:32:10.453Z,64.21
2018-10-12T12:33:18.529Z,62.86
2018-10-12T12:34:26.639Z,65.11
2018-10-12T12:35:35.065Z,61.64
2018-10-12T12:36:42.736Z,62.02
2018-10-12T12:37:50.810Z,63.95
2018-10-12T12:38:58.872Z,62.41
2018-10-12T12:40:06.952Z,60.10
2018-10-12T12:41:15.020Z,59.42
2018-10-12T12:42:23.093Z,60.19
2018-10-12T12:43:31.158Z,60.28
2018-10-12T12:44:39.239Z,60.38
2018-10-12T12:45:47.289Z,58.55
2018-10-12T12:46:55.963Z,57.97
2018-10-12T12:48:04.414Z,60.00
2018-10-12T12:49:12.739Z,59.13
2018-10-12T12:50:20.444Z,59.13
2018-10-12T12:51:28.455Z,60.38
2018-10-12T12:52:36.505Z,58.55
2018-10-12T12:53:44.607Z,57.20
2018-10-12T12:54:52.698Z,57.49
2018-10-12T12:56:00.756Z,56.33
2018-10-12T12:57:08.806Z,56.62
2018-10-12T12:58:16.873Z,57.01
2018-10-12T12:59:24.938Z,57.20
2018-10-12T13:00:33.036Z,57.59
2018-10-12T13:01:41.094Z,57.59
2018-10-12T13:02:49.153Z,55.78
2018-10-12T13:03:57.234Z,58.17
2018-10-12T13:05:05.299Z,56.33
2018-10-12T13:06:13.371Z,58.00
2018-10-12T13:09:49.906Z,57.49
2018-10-12T13:10:57.968Z,60.03
2018-10-12T13:12:06.021Z,60.00
2018-10-12T13:13:14.107Z,59.80
2018-10-12T13:14:22.178Z,60.31
2018-10-12T13:15:30.248Z,60.41
2018-10-12T13:16:38.322Z,63.02
2018-10-12T13:17:46.364Z,63.50
2018-10-12T13:18:54.570Z,63.02
2018-10-12T13:20:02.534Z,58.97
2018-10-12T13:21:10.609Z,59.35
2018-10-12T13:22:18.672Z,59.16
2018-10-12T13:23:26.730Z,60.61
2018-10-12T13:24:34.810Z,61.28
2018-10-12T13:25:42.906Z,59.74
2018-10-12T13:26:50.944Z,59.83
2018-10-12T13:27:59.036Z,56.84
2018-10-12T13:29:07.101Z,56.36
2018-10-12T13:30:15.164Z,58.00
2018-10-12T13:31:23.237Z,57.71
2018-10-12T13:32:31.660Z,58.97
2018-10-12T13:33:39.390Z,60.31
2018-10-12T13:34:47.456Z,56.26
2018-10-12T13:35:55.523Z,56.36
2018-10-12T13:37:03.601Z,55.98
2018-10-12T13:38:11.674Z,56.46
2018-10-12T13:39:19.736Z,56.46
2018-10-12T13:40:27.800Z,56.36
2018-10-12T13:41:35.866Z,56.36
2018-10-12T13:42:43.954Z,58.29
2018-10-12T13:43:52.018Z,59.93
2018-10-12T13:45:00.107Z,59.74
2018-10-12T13:46:08.152Z,59.83
2018-10-12T13:47:16.215Z,60.22
2018-10-12T13:48:24.284Z,59.35
2018-10-12T13:49:32.398Z,58.10
2018-10-12T13:50:40.439Z,56.56
2018-10-12T13:51:48.512Z,55.59
2018-10-12T13:52:56.570Z,56.16
2018-10-12T13:54:04.642Z,56.65
2018-10-12T13:55:12.713Z,54.72
2018-10-12T13:56:20.799Z,52.69
2018-10-12T13:57:28.859Z,54.82
2018-10-12T13:58:36.927Z,56.16
2018-10-12T13:59:44.999Z,54.24
2018-10-12T14:00:53.070Z,55.30
2018-10-12T14:02:01.143Z,53.17
2018-10-12T14:03:09.226Z,53.95
2018-10-12T14:04:17.293Z,55.49
2018-10-12T14:05:25.349Z,54.05
2018-10-12T14:06:33.422Z,55.10
2018-10-12T14:07:41.502Z,54.62
2018-10-12T14:08:49.578Z,54.43
2018-10-12T14:09:57.641Z,54.14
2018-10-12T14:11:05.698Z,54.14
2018-10-12T14:12:13.789Z,53.05
2018-10-12T14:13:21.852Z,54.53
2018-10-12T14:14:29.916Z,51.70
2018-10-12T14:15:38.248Z,52.67
2018-10-12T14:16:46.042Z,52.86
2018-10-12T14:17:54.136Z,53.15
2018-10-12T14:19:02.442Z,53.05
2018-10-12T14:20:10.265Z,54.50
2018-10-12T14:21:18.329Z,51.80
2018-10-12T14:22:26.382Z,52.09
2018-10-12T14:23:34.478Z,53.53
2018-10-12T14:24:42.540Z,51.51
2018-10-12T14:25:50.626Z,53.44
2018-10-12T14:26:58.680Z,52.47
2018-10-12T14:28:06.750Z,50.54
2018-10-12T14:29:14.840Z,49.68
2018-10-12T14:30:22.908Z,51.32
2018-10-12T14:31:31.015Z,52.19
2018-10-12T14:32:39.048Z,54.88
2018-10-12T14:33:47.123Z,54.69
2018-10-12T14:34:55.190Z,52.19
2018-10-12T14:36:03.258Z,51.32
2018-10-12T14:37:11.331Z,52.37
2018-10-12T14:38:19.390Z,52.86
2018-10-12T14:39:27.468Z,55.85
2018-10-12T14:40:35.532Z,56.14
2018-10-12T14:41:43.645Z,54.31
2018-10-12T14:42:51.680Z,55.85
2018-10-12T14:43:59.861Z,56.62
2018-10-12T14:45:07.817Z,55.63
2018-10-12T14:46:15.886Z,56.14
2018-10-12T14:47:23.955Z,56.01
2018-10-12T14:48:32.039Z,54.79
2018-10-12T14:49:40.098Z,56.11
2018-10-12T14:50:48.177Z,56.49
2018-10-12T14:51:56.229Z,54.76
2018-10-12T14:53:04.389Z,55.82
2018-10-12T14:54:12.385Z,54.11
2018-10-12T14:55:20.471Z,55.18
2018-10-12T14:56:28.579Z,56.21
2018-10-12T14:57:36.584Z,56.88
2018-10-12T14:58:44.723Z,57.94